WEATHER DATA

TODAY
Time Temp. Dewp. Hum. Bar. 1h Prec. 24h Prec.
00:09 15.8 13.3 85 1018.9 0.0000 0.0000
00:20 15.7 13.4 86 1018.8 0.0000 0.0000
00:30 15.7 13.4 86 1018.9 0.0000 0.0000
00:39 15.6 13.3 86 1018.8 0.0000 0.0000
00:49 15.6 13.3 86 1018.8 0.0000 0.0000
01:00 15.5 13.2 86 1018.6 0.0000 0.0000
01:10 15.5 13.3 87 1018.7 0.0000 0.0000
01:20 15.4 13.2 87 1018.5 0.0000 0.0000
01:30 15.3 13.2 87 1018.5 0.0000 0.0000
01:40 15.2 13.1 87 1018.3 0.0000 0.0000
01:50 15.2 13.1 87 1018.4 0.0000 0.0000
02:00 15.2 13.1 87 1018.4 0.0000 0.0000
02:11 15.1 13 87 1018.6 0.0000 0.0000
02:20 15 12.9 87 1018.6 0.0000 0.0000
02:30 14.9 12.8 87 1018.6 0.0000 0.0000
02:40 14.7 12.6 87 1018.5 0.0000 0.0000
02:51 14.6 12.5 87 1018.6 0.0000 0.0000
03:01 14.5 12.4 87 1018.7 0.0000 0.0000
03:10 14.4 12.3 87 1018.8 0.0000 0.0000
03:21 14.4 12.4 88 1018.7 0.0000 0.0000
03:31 14.4 12.4 88 1018.7 0.0000 0.0000
03:41 14.4 12.4 88 1018.6 0.0000 0.0000
03:51 14.4 12.4 88 1018.5 0.0000 0.0000
04:01 14.4 12.6 89 1018.7 0.0000 0.0000
04:11 14.4 12.4 88 1018.6 0.0000 0.0000
04:21 14.3 12.3 88 1018.6 0.0000 0.0000
04:32 14.3 12.5 89 1018.5 0.0000 0.0000
04:41 14.4 12.6 89 1018.5 0.0000 0.0000
04:51 14.4 12.6 89 1018.4 0.0000 0.0000
05:01 14.4 12.6 89 1018.4 0.0000 0.0000
05:12 14.4 12.6 89 1018.4 0.0000 0.0000
05:15 14.5 12.7 89 1018.4 0.0000 0.0000
05:25 14.5 12.7 89 1018.3 0.0000 0.0000
05:35 14.5 12.7 89 1018.3 0.0000 0.0000
05:45 14.4 12.6 89 1018.4 0.0000 0.0000
05:55 14.4 12.6 89 1018.4 0.0000 0.0000
06:06 14.4 12.6 89 1018.5 0.0000 0.0000
06:15 14.5 12.7 89 1018.3 0.0000 0.0000
06:25 14.5 12.9 90 1018.5 0.0000 0.0000
06:35 14.6 13 90 1018.4 0.0000 0.0000
06:46 14.7 13.1 90 1018.6 0.0000 0.0000
06:56 14.8 13.2 90 1018.6 0.0000 0.0000
07:05 14.9 13.4 91 1018.7 0.0000 0.0000
07:16 15 13.5 91 1018.8 0.0000 0.0000
07:26 15.1 13.6 91 1018.8 0.0000 0.0000
07:36 15.2 13.6 90 1018.9 0.0000 0.0000
07:46 15.2 13.6 90 1018.8 0.0000 0.0000
07:56 15.3 13.7 90 1018.8 0.0000 0.0000
08:06 15.4 13.8 90 1018.9 0.0000 0.0000
08:17 15.4 13.8 90 1018.9 0.0000 0.0000
08:26 15.5 13.9 90 1019 0.0000 0.0000
08:36 15.6 14 90 1019.2 0.0000 0.0000
08:46 15.7 14.1 90 1019.1 0.0000 0.0000
08:57 15.8 14.2 90 1019.2 0.0000 0.0000
09:07 15.9 14.3 90 1019.4 0.0000 0.0000
09:16 16 14.4 90 1019.3 0.0000 0.0000
09:27 16.1 14.5 90 1019.4 0.0000 0.0000
09:37 16.3 14.7 90 1019.3 0.0000 0.0000
09:47 16.5 14.9 90 1019.2 0.0000 0.0000
09:57 16.8 15.2 90 1019.1 0.0000 0.0000
10:07 17.1 15.3 89 1019.1 0.0000 0.0000
10:17 17.3 15.5 89 1019.1 0.0000 0.0000
10:27 17.6 15.8 89 1019.2 0.0000 0.0000
10:38 18 16 88 1019.2 0.0000 0.0000
10:48 18.2 16 87 1019.1 0.0000 0.0000
10:57 18.4 16.2 87 1019.1 0.0000 0.0000
11:07 18.6 16.2 86 1019.1 0.0000 0.0000
11:18 18.8 16.4 86 1019 0.0000 0.0000
11:28 19 16.4 85 1019.1 0.0000 0.0000
11:38 19.3 16.7 85 1019.1 0.0000 0.0000
11:48 19.6 16.8 84 1019.1 0.0000 0.0000
11:58 19.9 17.1 84 1018.9 0.0000 0.0000
12:08 20.2 17.2 83 1019 0.0000 0.0000
12:18 20.4 17.2 82 1018.8 0.0000 0.0000
12:29 20.8 17.4 81 1018.7 0.0000 0.0000
12:38 20.9 17.5 81 1018.7 0.0000 0.0000
12:48 21.2 17.6 80 1018.6 0.0000 0.0000
12:59 21.3 17.7 80 1018.5 0.0000 0.0000
13:09 21.4 17.6 79 1018.5 0.0000 0.0000
13:18 21.4 17.6 79 1018.4 0.0000 0.0000
13:28 21.5 17.5 78 1018.4 0.0000 0.0000
13:39 21.6 17.6 78 1018.2 0.0000 0.0000
13:49 21.8 17.6 77 1018.1 0.0000 0.0000
13:59 22 17.6 76 1018.2 0.0000 0.0000
14:09 22.2 17.6 75 1018.1 0.0000 0.0000
14:19 22.6 17.3 72 1017.9 0.0000 0.0000
14:29 22.7 17.8 74 1017.8 0.0000 0.0000
14:39 22.9 18 74 1017.7 0.0000 0.0000
14:49 23 17.9 73 1017.6 0.0000 0.0000
14:59 23.1 17.6 71 1017.5 0.0000 0.0000
15:09 23.1 17.6 71 1017.4 0.0000 0.0000
15:19 23.1 17.6 71 1017.3 0.0000 0.0000
15:30 23.2 17.4 70 1017.1 0.0000 0.0000
15:39 23.2 17.2 69 1017 0.0000 0.0000
15:49 23.4 17.4 69 1016.9 0.0000 0.0000

DAY STATISTIC

2018-05-24
TEMPERATURE
AVERAGE
17.2
HIGH
23.4
15:49
LOW
14.3
04:21
PRESSURE
AVERAGE
1018.6
HIGH
1019.4
09:07
LOW
1016.9
15:49
DEWPOINT
AVERAGE
14.6
HIGH
18.0
14:39
LOW
12.3
03:10
HUMIDITY
AVERAGE
85
HIGH
91
07:05
LOW
69
15:39
PRECIPITATION
RAIN HOUR
0.0
RAIN DAY
0.0
TEMPERATURE (°C)
LOW
14.3
HIGH
23.4
AVERAGE
17.2
PRESSURE (hpa)
LOW
1016.9
HIGH
1019.4
AVERAGE
1018.6
DEVICE